Time;durP1;ratioP1;P1;durP2;ratioP2;P2;SDS_P1;SDS_P2;PMS_P1;PMS_P2;Temp;Humidity;BMP_temperature;BMP_pressure;BME280_temperature;BME280_humidity;BME280_pressure;Samples;Min_cycle;Max_cycle;Signal;HPM_P1;HPM_P2
2022/11/04 00:00:56;;;;;;;;;;;;;;;;;;5033552;28;7588;-70
2022/11/04 07:23:11;;;;;;;;;;;;;;;;;;5109539;27;13381;-73
2022/11/04 07:25:36;;;;;;;;;;;;;;;;;;5108867;28;7534;-78
2022/11/04 07:28:01;;;;;;;;;5.20;5.20;;;;;;;;5106807;28;7524;-75
2022/11/04 07:30:27;;;;;;;;;3.75;3.25;;;;;;;;5101261;28;13651;-74
2022/11/04 07:32:52;;;;;;;;;2.75;2.75;;;;;;;;5096055;28;9506;-74
2022/11/04 07:35:17;;;;;;;;;2.00;2.00;;;;;;;;5086721;28;8942;-72
2022/11/04 11:18:37;;;;;;;;;4.50;1.00;;;;;;;;5112724;27;13352;-69
2022/11/04 11:21:04;;;;;;;;;1.50;1.50;;;;;;;;5103397;28;13372;-69
2022/11/04 11:23:29;;;;;;;;;3.00;1.00;;;;;;;;5103024;28;13431;-72
2022/11/04 11:25:55;;;;;;;;;3.00;3.00;;;;;;;;5084510;28;13365;-69
2022/11/04 11:28:22;;;;;;;;;1.00;1.00;;;;;;;;5102563;28;13371;-69
2022/11/04 11:30:47;;;;;;;;;1.00;1.00;;;;;;;;5084503;28;13370;-69
2022/11/04 11:33:17;;;;;;;;;2.00;1.00;;;;;;;;5103138;28;13370;-70
2022/11/04 11:36:03;;;;;;;;;1.50;0.00;;;;;;;;5103445;28;13368;-70
2022/11/04 11:38:30;;;;;;;;;2.75;2.75;;;;;;;;5103763;28;8786;-70
2022/11/04 11:41:09;;;;;;;;;2.50;0.00;;;;;;;;5105881;28;8918;-70
2022/11/04 11:43:36;;;;;;;;;3.50;1.00;;;;;;;;5087907;28;8887;-70
2022/11/04 11:46:02;;;;;;;;;2.00;0.00;;;;;;;;5106128;28;8822;-70
2022/11/04 11:48:39;;;;;;;;;0.00;0.00;;;;;;;;5087694;28;8812;-70
2022/11/04 11:51:05;;;;;;;;;2.00;0.00;;;;;;;;5104205;28;8810;-70
2022/11/04 11:53:34;;;;;;;;;0.67;0.00;;;;;;;;5103939;28;8822;-70
2022/11/04 11:56:13;;;;;;;;;0.00;0.00;;;;;;;;5103864;28;8817;-70
2022/11/04 11:58:45;;;;;;;;;0.00;0.00;;;;;;;;5103704;28;8894;-69
2022/11/04 12:01:16;;;;;;;;;0.00;0.00;;;;;;;;5027282;28;10225;-71
2022/11/04 12:03:43;;;;;;;;;1.33;0.00;;;;;;;;5080063;28;9022;-72
2022/11/04 12:06:32;;;;;;;;;0.00;0.00;;;;;;;;5084295;28;9698;-74
2022/11/04 12:08:57;;;;;;;;;1.33;0.00;;;;;;;;5066846;28;9054;-75
2022/11/04 12:11:23;;;;;;;;;;;;;;;;;;5087029;28;9172;-72
2022/11/04 12:13:48;;;;;;;;;;;;;;;;;;5086050;28;8428;-73
2022/11/04 12:16:13;;;;;;;;;;;;;;;;;;5084523;28;7551;-71
2022/11/04 12:18:38;;;;;;;;;;;;;;;;;;5086754;28;7528;-70
2022/11/04 12:21:03;;;;;;;;;;;;;;;;;;5086603;28;7586;-71
2022/11/04 12:23:28;;;;;;;;;;;;;;;;;;5086349;28;7539;-73
2022/11/04 12:25:54;;;;;;;;;;;;;;;;;;5078237;28;8859;-72
2022/11/04 12:28:21;;;;;;;;;;;;;;;;;;5060021;28;7591;-71
2022/11/04 12:30:46;;;;;;;;;;;;;;;;;;5053083;28;7513;-71
2022/11/04 12:33:11;;;;;;;;;;;;;;;;;;5052473;28;7521;-71
2022/11/04 12:35:36;;;;;;;;;;;;;;;;;;5051171;28;7571;-73
2022/11/04 12:38:01;;;;;;;;;;;;;;;;;;5052661;28;7551;-72
2022/11/04 12:40:26;;;;;;;;;;;;;;;;;;5052815;28;8002;-72
2022/11/04 12:42:52;;;;;;;;;;;;;;;;;;5051395;28;10064;-70
2022/11/04 12:45:17;;;;;;;;;;;;;;;;;;5049665;28;9627;-72
2022/11/04 12:47:42;;;;;;;;;;;;;;;;;;5046327;28;10939;-72
2022/11/04 12:50:48;;;;;;;;;;;;;;;;;;5071854;27;13549;-71
2022/11/04 12:53:14;;;;;;;;;;;;;;;;;;5067277;28;7536;-72
2022/11/04 12:55:39;;;;;;;;;;;;;;;;;;5066649;28;7582;-72
2022/11/04 12:58:04;;;;;;;;;;;;;;;;;;5067324;28;7619;-72
2022/11/04 13:00:29;;;;;;;;;;;;;;;;;;5067485;28;7525;-73
2022/11/04 13:02:55;;;;;;;;;;;;;;;;;;5069254;28;9532;-69
2022/11/04 13:06:51;;;;;;;;;0.50;0.50;;;;;;;;5062471;27;13438;-72
2022/11/04 13:09:35;;;;;;;;;5917.67;1779.67;;;;;;;;5041905;28;9941;-73
2022/11/04 13:12:04;;;;;;;;;18.40;12.00;;;;;;;;5039253;28;10190;-72
2022/11/04 13:14:32;;;;;;;;;2.00;1.00;;;;;;;;5059724;28;10929;-73
2022/11/04 13:16:59;;;;;;;;;0.00;0.00;;;;;;;;5062699;28;10346;-72
2022/11/04 13:19:28;;;;;;;;;0.00;0.00;;;;;;;;5064610;28;9641;-73
2022/11/04 13:21:55;;;;;;;;;1.00;0.00;;;;;;;;5065910;28;9741;-73
2022/11/04 13:24:30;;;;;;;;;0.00;0.00;;;;;;;;5065028;28;9609;-74
2022/11/04 13:26:59;;;;;;;;;1.25;0.00;;;;;;;;5065918;28;9658;-73
2022/11/04 13:29:25;;;;;;;;;0.00;0.00;;;;;;;;5066090;28;9729;-74
2022/11/04 13:31:50;;;;;;;;;0.50;0.50;;;;;;;;5065524;28;9874;-73
2022/11/04 13:34:31;;;;;;;;;0.00;0.00;;;;;;;;5065501;28;8852;-71
2022/11/04 13:37:15;;;;;;;;;2.00;0.00;;;;;;;;5065214;28;8804;-72
2022/11/04 13:39:44;;;;;;;;;1.25;0.00;;;;;;;;5006549;28;10695;-72
2022/11/04 13:42:19;;;;;;;;;0.00;0.00;;;;;;;;5063468;28;9818;-72
2022/11/04 13:44:45;;;;;;;;;0.00;0.00;;;;;;;;5056989;28;9917;-72
2022/11/04 13:47:23;;;;;;;;;1.00;0.00;;;;;;;;5045012;28;10030;-72
2022/11/04 13:49:49;;;;;;;;;1.00;0.00;;;;;;;;5045431;28;9939;-74
2022/11/04 13:52:15;;;;;;;;;1.00;0.00;;;;;;;;5044419;28;9992;-72
2022/11/04 13:54:43;;;;;;;;;0.00;0.00;;;;;;;;5043141;28;9889;-73
2022/11/04 13:57:18;;;;;;;;;0.00;0.00;;;;;;;;5044902;28;8788;-71
2022/11/04 14:00:18;;;;;;;;;0.00;0.00;;;;;;;;5044870;28;10220;-71
2022/11/04 14:02:45;;;;;;;;;2.50;1.00;;;;;;;;5042367;28;10020;-71
2022/11/04 14:05:33;;;;;;;;;0.00;0.00;;;;;;;;5042328;28;10285;-71
2022/11/04 14:08:01;;;;;;;;;0.00;0.00;;;;;;;;5042560;28;10223;-71
2022/11/04 14:10:41;;;;;;;;;0.00;0.00;;;;;;;;5025455;28;10163;-71
2022/11/04 14:13:25;;;;;;;;;0.00;0.00;;;;;;;;5042272;28;10103;-70
2022/11/04 14:16:08;;;;;;;;;5.00;0.00;;;;;;;;5040356;28;10031;-71
2022/11/04 14:18:38;;;;;;;;;0.00;0.00;;;;;;;;5028667;28;10105;-73
2022/11/04 14:21:04;;;;;;;;;0.00;0.00;;;;;;;;5029210;28;10172;-72
2022/11/04 14:23:30;;;;;;;;;1.50;0.00;;;;;;;;5028885;28;10265;-72
2022/11/04 14:26:00;;;;;;;;;0.00;0.00;;;;;;;;5029293;28;8861;-73
2022/11/04 14:28:27;;;;;;;;;2.00;0.00;;;;;;;;5028920;28;8921;-72
2022/11/04 14:30:57;;;;;;;;;1.00;0.00;;;;;;;;5029018;28;10229;-71
2022/11/04 14:33:30;;;;;;;;;2.25;0.00;;;;;;;;5028723;28;10051;-72
2022/11/04 14:36:11;;;;;;;;;0.00;0.00;;;;;;;;5029645;28;11112;-72
2022/11/04 14:38:37;;;;;;;;;1.75;0.00;;;;;;;;5031062;28;10189;-70
2022/11/04 14:41:13;;;;;;;;;2.00;0.00;;;;;;;;5031466;28;10281;-72
2022/11/04 14:43:41;;;;;;;;;2.00;2.00;;;;;;;;5031014;28;8795;-69
2022/11/04 14:46:07;;;;;;;;;1.25;1.25;;;;;;;;5031108;28;10491;-70
2022/11/04 14:48:33;;;;;;;;;0.75;0.75;;;;;;;;5031113;28;11009;-71
2022/11/04 14:50:58;;;;;;;;;0.75;0.00;;;;;;;;5031826;28;8819;-73
2022/11/04 14:53:32;;;;;;;;;0.00;0.00;;;;;;;;5031218;28;8787;-70
2022/11/04 14:56:19;;;;;;;;;0.25;0.00;;;;;;;;5031252;28;8819;-70
2022/11/04 14:58:53;;;;;;;;;3.00;0.50;;;;;;;;5025415;28;10406;-69
2022/11/04 15:01:19;;;;;;;;;0.00;0.00;;;;;;;;5018403;28;10379;-74
2022/11/04 15:03:45;;;;;;;;;1.00;0.25;;;;;;;;5012571;28;10321;-72
2022/11/04 15:06:10;;;;;;;;;0.00;0.00;;;;;;;;5011475;28;8830;-73
2022/11/04 15:08:41;;;;;;;;;0.50;0.00;;;;;;;;5011237;28;10481;-75
2022/11/04 15:11:11;;;;;;;;;2.50;1.00;;;;;;;;5010245;28;8823;-73
2022/11/04 15:13:42;;;;;;;;;5.75;1.00;;;;;;;;5010022;28;10266;-71
2022/11/04 15:16:10;;;;;;;;;3.00;0.00;;;;;;;;5029100;28;10448;-72
2022/11/04 15:18:36;;;;;;;;;1.25;0.25;;;;;;;;5030929;28;10212;-71
2022/11/04 15:21:20;;;;;;;;;0.00;0.00;;;;;;;;5031375;28;10191;-71
2022/11/04 15:23:47;;;;;;;;;0.00;0.00;;;;;;;;5035331;28;10172;-72
2022/11/04 15:29:18;;;;;;;;;2.00;1.00;;;;;;;;5028618;28;10251;-74
2022/11/04 15:31:57;;;;;;;;;0.00;0.00;;;;;;;;5035386;28;10388;-72
2022/11/04 15:34:24;;;;;;;;;0.75;0.75;;;;;;;;5029561;28;10417;-68
2022/11/04 15:36:53;;;;;;;;;0.00;0.00;;;;;;;;5029338;28;10351;-70
2022/11/04 15:39:18;;;;;;;;;0.00;0.00;;;;;;;;5030233;28;11081;-70
2022/11/04 15:44:29;;;;;;;;;0.50;0.00;;;;;;;;5026396;28;8834;-70
2022/11/04 15:46:56;;;;;;;;;0.50;0.00;;;;;;;;5040200;28;10952;-74
2022/11/04 15:49:26;;;;;;;;;1.75;0.00;;;;;;;;5048669;28;10342;-72
2022/11/04 15:51:58;;;;;;;;;0.00;0.00;;;;;;;;5041571;22;10426;-75
2022/11/04 15:54:25;;;;;;;;;2.00;1.00;;;;;;;;5004050;28;11267;-74
2022/11/04 15:56:53;;;;;;;;;1.00;1.00;;;;;;;;5000667;28;10373;-74
2022/11/04 15:59:30;;;;;;;;;1.00;0.00;;;;;;;;4997125;28;10524;-73
2022/11/04 16:01:56;;;;;;;;;2.50;0.00;;;;;;;;4999588;28;10491;-74
2022/11/04 16:04:23;;;;;;;;;2.25;0.00;;;;;;;;4999709;28;10525;-75
2022/11/04 16:07:02;;;;;;;;;0.00;0.00;;;;;;;;5000520;28;8806;-72
2022/11/04 16:09:27;;;;;;;;;2.00;0.50;;;;;;;;5000712;28;10756;-71
2022/11/04 16:12:19;;;;;;;;;0.00;0.00;;;;;;;;4999136;28;10746;-73
2022/11/04 16:14:51;;;;;;;;;1.50;1.50;;;;;;;;5002339;28;9006;-71
2022/11/04 16:17:17;;;;;;;;;7.00;6.50;;;;;;;;4998922;28;10830;-72
2022/11/04 16:19:44;;;;;;;;;0.50;0.50;;;;;;;;4998258;28;11003;-71
2022/11/04 16:22:10;;;;;;;;;3.50;0.00;;;;;;;;5000624;28;8845;-70
2022/11/04 16:24:55;;;;;;;;;1.25;0.25;;;;;;;;4995688;28;10670;-70
2022/11/04 16:27:21;;;;;;;;;1.75;1.00;;;;;;;;4987472;28;8866;-75
2022/11/04 16:29:57;;;;;;;;;0.25;0.00;;;;;;;;4989819;28;10941;-73
2022/11/04 16:32:22;;;;;;;;;0.00;0.00;;;;;;;;4998914;28;8898;-73
2022/11/04 16:34:48;;;;;;;;;0.00;0.00;;;;;;;;4998887;28;10840;-74
2022/11/04 16:37:14;;;;;;;;;1.50;0.00;;;;;;;;4996852;28;8855;-74
2022/11/04 16:39:39;;;;;;;;;1.00;0.00;;;;;;;;5000158;28;10877;-73
2022/11/04 16:42:05;;;;;;;;;1.00;1.00;;;;;;;;4998045;28;8831;-74
2022/11/04 16:44:31;;;;;;;;;1.00;1.00;;;;;;;;5000245;28;8876;-74
2022/11/04 16:46:56;;;;;;;;;0.00;0.00;;;;;;;;5000889;28;8833;-74
2022/11/04 16:49:22;;;;;;;;;0.00;0.00;;;;;;;;4998379;28;11487;-75
2022/11/04 16:51:49;;;;;;;;;2.00;1.00;;;;;;;;4997912;28;8857;-73
2022/11/04 16:54:15;;;;;;;;;2.00;2.00;;;;;;;;4999130;28;8809;-72
2022/11/04 16:56:40;;;;;;;;;2.25;0.00;;;;;;;;4998502;28;11103;-71
2022/11/04 16:59:05;;;;;;;;;1.25;1.25;;;;;;;;4996504;28;8829;-72
2022/11/04 17:01:30;;;;;;;;;3.00;1.75;;;;;;;;4996638;28;8814;-75
2022/11/04 17:03:56;;;;;;;;;3.00;1.00;;;;;;;;5000099;28;8830;-76
2022/11/04 17:06:21;;;;;;;;;3.00;1.50;;;;;;;;4998456;28;8864;-75
2022/11/04 17:08:47;;;;;;;;;0.25;0.25;;;;;;;;4996199;28;8829;-75
2022/11/04 17:11:12;;;;;;;;;2.00;0.25;;;;;;;;4989987;28;8833;-74
2022/11/04 17:13:38;;;;;;;;;1.00;1.00;;;;;;;;4990625;28;8797;-73
2022/11/04 17:16:04;;;;;;;;;2.00;0.25;;;;;;;;5008295;28;8922;-73
2022/11/04 17:18:30;;;;;;;;;0.00;0.00;;;;;;;;5001223;28;8818;-72
2022/11/04 17:20:56;;;;;;;;;1.25;1.00;;;;;;;;4997933;28;10779;-72
2022/11/04 17:23:21;;;;;;;;;2.00;2.00;;;;;;;;5001838;28;10858;-74
2022/11/04 17:25:47;;;;;;;;;8.25;7.25;;;;;;;;5006190;28;8896;-73
2022/11/04 17:28:13;;;;;;;;;6.00;6.00;;;;;;;;5001223;28;8805;-72
2022/11/04 17:30:38;;;;;;;;;5.25;2.00;;;;;;;;4997000;28;11456;-72
2022/11/04 17:33:05;;;;;;;;;2.50;1.75;;;;;;;;4999498;28;8870;-73
2022/11/04 17:35:32;;;;;;;;;3.75;1.00;;;;;;;;4999327;28;8842;-72
2022/11/04 17:37:58;;;;;;;;;2.00;1.00;;;;;;;;5015991;28;10888;-72
2022/11/04 17:40:23;;;;;;;;;2.75;1.75;;;;;;;;4994266;28;11050;-71
2022/11/04 17:45:32;;;;;;;;;1.50;0.00;;;;;;;;5000382;28;8817;-71
2022/11/04 17:48:01;;;;;;;;;1.00;1.00;;;;;;;;4992994;28;10884;-71
2022/11/04 17:50:28;;;;;;;;;3.00;2.00;;;;;;;;4988562;28;8797;-71
2022/11/04 17:52:53;;;;;;;;;1.00;0.00;;;;;;;;4998226;28;11126;-71
2022/11/04 17:55:19;;;;;;;;;1.25;1.00;;;;;;;;5003104;28;11021;-71
2022/11/04 17:57:44;;;;;;;;;2.75;1.00;;;;;;;;5004388;28;8796;-72
2022/11/04 18:00:12;;;;;;;;;2.00;1.00;;;;;;;;5015242;28;9759;-72
2022/11/04 18:02:37;;;;;;;;;2.50;1.50;;;;;;;;5001977;28;9556;-72
2022/11/04 18:05:02;;;;;;;;;2.00;1.00;;;;;;;;5003524;28;11174;-72
2022/11/04 18:07:28;;;;;;;;;1.00;0.75;;;;;;;;5002407;28;8824;-71
2022/11/04 18:09:54;;;;;;;;;1.00;1.00;;;;;;;;4999325;28;8812;-71
2022/11/04 18:12:40;;;;;;;;;2.25;1.50;;;;;;;;5001116;28;11502;-72
2022/11/04 18:15:09;;;;;;;;;4.75;1.50;;;;;;;;5005921;28;8837;-71
2022/11/04 18:17:38;;;;;;;;;30.00;26.00;;;;;;;;5015959;28;11759;-72
2022/11/04 18:20:04;;;;;;;;;21.75;16.50;;;;;;;;4995699;28;11539;-73
2022/11/04 18:22:30;;;;;;;;;41.50;37.50;;;;;;;;4995026;28;11511;-72
2022/11/04 18:24:55;;;;;;;;;9.50;9.00;;;;;;;;5013804;28;11636;-72
2022/11/04 18:27:20;;;;;;;;;6.00;4.75;;;;;;;;5006614;28;8828;-74
2022/11/04 18:29:45;;;;;;;;;5.75;4.50;;;;;;;;5004437;28;8793;-77
2022/11/04 18:32:11;;;;;;;;;54.50;43.00;;;;;;;;4992995;28;9416;-74
2022/11/04 18:34:36;;;;;;;;;36.50;32.50;;;;;;;;4962244;28;10687;-73
2022/11/04 18:37:02;;;;;;;;;10.50;9.00;;;;;;;;5026713;28;8934;-71
2022/11/04 18:39:28;;;;;;;;;8.50;8.00;;;;;;;;5010106;28;8839;-73
2022/11/04 18:41:53;;;;;;;;;6.00;6.00;;;;;;;;5012951;28;8845;-72
2022/11/04 18:44:20;;;;;;;;;5.00;4.25;;;;;;;;5012474;28;8810;-72
2022/11/04 18:46:46;;;;;;;;;10.75;6.25;;;;;;;;5011750;28;8794;-70
2022/11/04 18:49:12;;;;;;;;;6.50;6.50;;;;;;;;5010356;28;11207;-70
2022/11/04 18:51:38;;;;;;;;;5.00;5.00;;;;;;;;5012296;28;11488;-71
2022/11/04 18:54:04;;;;;;;;;3.00;1.75;;;;;;;;5012789;28;8852;-70
2022/11/04 18:56:29;;;;;;;;;4.75;2.00;;;;;;;;5012561;28;8931;-70
2022/11/04 18:58:54;;;;;;;;;4.00;3.00;;;;;;;;5010566;28;11541;-71
2022/11/04 19:01:25;;;;;;;;;5.00;5.00;;;;;;;;5000241;28;8818;-70
2022/11/04 19:03:50;;;;;;;;;4.00;4.00;;;;;;;;5001205;28;8871;-71
2022/11/04 19:06:17;;;;;;;;;6.50;5.00;;;;;;;;5012072;28;11583;-69
2022/11/04 19:08:42;;;;;;;;;6.00;3.00;;;;;;;;4997741;28;8817;-68
2022/11/04 19:11:10;;;;;;;;;5.75;4.00;;;;;;;;5001798;28;11846;-69
2022/11/04 19:13:35;;;;;;;;;4.25;4.25;;;;;;;;5000591;28;8797;-70
2022/11/04 19:16:05;;;;;;;;;5.00;4.25;;;;;;;;5011100;28;11282;-70
2022/11/04 19:18:30;;;;;;;;;5.50;2.75;;;;;;;;5009006;28;8928;-70
2022/11/04 19:20:55;;;;;;;;;6.25;4.75;;;;;;;;5011814;28;11314;-70
2022/11/04 19:23:20;;;;;;;;;8.50;5.50;;;;;;;;4997072;28;8912;-71
2022/11/04 19:25:46;;;;;;;;;7.00;3.00;;;;;;;;5011074;28;8842;-70
2022/11/04 19:28:12;;;;;;;;;4.50;4.00;;;;;;;;5012176;28;9549;-70
2022/11/04 19:30:37;;;;;;;;;10.00;8.00;;;;;;;;4992882;28;8943;-69
2022/11/04 19:33:02;;;;;;;;;12.00;8.00;;;;;;;;4992003;28;12269;-73
2022/11/04 19:35:28;;;;;;;;;8.50;7.25;;;;;;;;4992183;28;8840;-71
2022/11/04 19:37:53;;;;;;;;;8.50;7.50;;;;;;;;5001998;28;8837;-70
2022/11/04 19:40:19;;;;;;;;;7.00;5.75;;;;;;;;4999665;28;8816;-71
2022/11/04 19:45:28;;;;;;;;;6.50;6.50;;;;;;;;5011544;28;8850;-72
2022/11/04 19:47:54;;;;;;;;;9.25;6.00;;;;;;;;5011236;28;11419;-73
2022/11/04 19:50:21;;;;;;;;;5.00;5.00;;;;;;;;5008947;28;8827;-72
2022/11/04 19:52:46;;;;;;;;;7.00;5.25;;;;;;;;5009672;28;9569;-73
2022/11/04 19:55:11;;;;;;;;;7.25;3.00;;;;;;;;4999366;28;11577;-74
2022/11/04 19:57:37;;;;;;;;;3.00;3.00;;;;;;;;5002470;28;8822;-73
2022/11/04 20:00:02;;;;;;;;;2.50;2.50;;;;;;;;4994348;28;8840;-74
2022/11/04 20:02:28;;;;;;;;;5.00;5.00;;;;;;;;4861714;28;12316;-74
2022/11/04 20:04:53;;;;;;;;;3.50;2.75;;;;;;;;4961295;28;10416;-73
2022/11/04 20:07:18;;;;;;;;;7.00;5.25;;;;;;;;5019011;28;8880;-72
2022/11/04 20:09:43;;;;;;;;;6.75;5.00;;;;;;;;5018516;28;8888;-76
2022/11/04 20:14:53;;;;;;;;;5.75;5.75;;;;;;;;5020324;28;8794;-72
2022/11/04 20:17:18;;;;;;;;;5.25;5.25;;;;;;;;5019632;28;11556;-74
2022/11/04 20:19:44;;;;;;;;;5.00;5.00;;;;;;;;5019856;28;11532;-74
2022/11/04 20:22:09;;;;;;;;;6.50;5.00;;;;;;;;5020353;28;8816;-74
2022/11/04 20:24:35;;;;;;;;;7.25;5.00;;;;;;;;5017259;28;8810;-72
2022/11/04 20:27:00;;;;;;;;;5.25;5.25;;;;;;;;5017456;28;8835;-72
2022/11/04 20:29:25;;;;;;;;;3.00;3.00;;;;;;;;5020206;28;8827;-73
2022/11/04 20:31:50;;;;;;;;;3.50;2.75;;;;;;;;5018277;28;8820;-73
2022/11/04 20:34:16;;;;;;;;;7.00;6.25;;;;;;;;5027389;28;9644;-73
2022/11/04 20:36:41;;;;;;;;;7.00;6.00;;;;;;;;5029060;28;8804;-72
2022/11/04 20:39:13;;;;;;;;;7.00;7.00;;;;;;;;5030545;28;9613;-71
2022/11/04 20:41:39;;;;;;;;;10.00;7.50;;;;;;;;5029114;28;9650;-71
2022/11/04 20:44:04;;;;;;;;;11.75;7.00;;;;;;;;5030139;28;11566;-72
2022/11/04 20:46:30;;;;;;;;;11.25;8.25;;;;;;;;5029949;28;8831;-72
2022/11/04 20:48:56;;;;;;;;;11.50;7.75;;;;;;;;5028946;28;8825;-73
2022/11/04 20:51:23;;;;;;;;;8.75;8.75;;;;;;;;5030768;28;8816;-73
2022/11/04 20:53:54;;;;;;;;;7.50;6.25;;;;;;;;5030102;28;11560;-71
2022/11/04 20:56:20;;;;;;;;;10.50;9.75;;;;;;;;5030312;28;11452;-70
2022/11/04 20:58:45;;;;;;;;;8.00;8.00;;;;;;;;5030028;28;11421;-71
2022/11/04 21:01:12;;;;;;;;;8.75;7.00;;;;;;;;5029974;28;8792;-71
2022/11/04 21:03:37;;;;;;;;;9.25;7.50;;;;;;;;5022626;28;8934;-73
2022/11/04 21:06:03;;;;;;;;;9.00;6.75;;;;;;;;5018573;28;11585;-71
2022/11/04 21:08:32;;;;;;;;;11.00;10.25;;;;;;;;5017284;28;8802;-72
2022/11/04 21:10:57;;;;;;;;;10.50;7.00;;;;;;;;5019674;28;8821;-72
2022/11/04 21:13:23;;;;;;;;;7.00;6.00;;;;;;;;5016908;28;11870;-72
2022/11/04 21:15:52;;;;;;;;;11.50;6.50;;;;;;;;5014869;28;8794;-72
2022/11/04 21:18:17;;;;;;;;;10.50;8.00;;;;;;;;5017213;28;9052;-73
2022/11/04 21:20:42;;;;;;;;;10.50;9.75;;;;;;;;5017824;28;12367;-72
2022/11/04 21:23:08;;;;;;;;;11.00;8.50;;;;;;;;5019324;28;8784;-72
2022/11/04 21:25:44;;;;;;;;;7.00;6.50;;;;;;;;5018967;28;8876;-73
2022/11/04 21:28:10;;;;;;;;;7.25;6.75;;;;;;;;5021777;28;11508;-73
2022/11/04 21:30:37;;;;;;;;;10.50;6.75;;;;;;;;5022790;28;11598;-73
2022/11/04 21:33:02;;;;;;;;;11.00;8.25;;;;;;;;5020102;28;12251;-73
2022/11/04 21:35:28;;;;;;;;;8.75;7.00;;;;;;;;5023142;28;11483;-72
2022/11/04 21:37:53;;;;;;;;;9.75;8.50;;;;;;;;5022679;28;8782;-72
2022/11/04 21:40:19;;;;;;;;;10.25;7.00;;;;;;;;5021366;28;8778;-73
2022/11/04 21:42:44;;;;;;;;;9.50;7.50;;;;;;;;5021437;28;8778;-73
2022/11/04 21:45:09;;;;;;;;;6.50;6.50;;;;;;;;5023229;28;8962;-73
2022/11/04 21:47:34;;;;;;;;;10.25;7.50;;;;;;;;5022509;28;8790;-72
2022/11/04 21:50:00;;;;;;;;;8.50;8.00;;;;;;;;5021275;28;9544;-72
2022/11/04 21:52:25;;;;;;;;;9.25;8.00;;;;;;;;5023151;28;8811;-72
2022/11/04 21:54:50;;;;;;;;;10.00;6.00;;;;;;;;5021895;28;8897;-72
2022/11/04 21:57:16;;;;;;;;;9.25;7.00;;;;;;;;5021784;28;8896;-72
2022/11/04 21:59:41;;;;;;;;;8.00;7.00;;;;;;;;5019249;28;9773;-73
2022/11/04 22:02:06;;;;;;;;;8.50;6.75;;;;;;;;5022689;28;8807;-73
2022/11/04 22:04:31;;;;;;;;;3.00;3.00;;;;;;;;5021825;28;8810;-73
2022/11/04 22:06:57;;;;;;;;;7.00;6.00;;;;;;;;5020237;28;8819;-73
2022/11/04 22:09:22;;;;;;;;;9.25;6.25;;;;;;;;5022897;28;8815;-73
2022/11/04 22:11:47;;;;;;;;;6.00;5.00;;;;;;;;5021275;28;8920;-73
2022/11/04 22:14:13;;;;;;;;;7.00;3.00;;;;;;;;5022222;28;8820;-73
2022/11/04 22:16:38;;;;;;;;;8.00;5.00;;;;;;;;5024949;28;8834;-72
2022/11/04 22:19:05;;;;;;;;;3.00;3.00;;;;;;;;5021636;28;8816;-72
2022/11/04 22:21:30;;;;;;;;;5.00;5.00;;;;;;;;5020072;28;8842;-72
2022/11/04 22:23:56;;;;;;;;;3.50;3.50;;;;;;;;5022347;28;11523;-73
2022/11/04 22:26:23;;;;;;;;;5.00;5.00;;;;;;;;5027509;28;8846;-72
2022/11/04 22:28:49;;;;;;;;;9.00;6.00;;;;;;;;5020495;28;9048;-72
2022/11/04 22:31:25;;;;;;;;;6.00;5.25;;;;;;;;5019208;28;11593;-74
2022/11/04 22:33:50;;;;;;;;;7.25;5.00;;;;;;;;5021084;28;9580;-72
2022/11/04 22:36:16;;;;;;;;;12.50;6.50;;;;;;;;5019375;28;11637;-77
2022/11/04 22:38:42;;;;;;;;;7.25;5.25;;;;;;;;5022122;28;8800;-73
2022/11/04 22:41:40;;;;;;;;;10.25;9.00;;;;;;;;5022615;28;8803;-73
2022/11/04 22:44:05;;;;;;;;;2.25;1.00;;;;;;;;4991086;28;8852;-72
2022/11/04 22:46:32;;;;;;;;;6.75;6.00;;;;;;;;5010429;28;11516;-72
2022/11/04 22:49:00;;;;;;;;;3.00;3.00;;;;;;;;5010646;28;9590;-72
2022/11/04 22:51:26;;;;;;;;;4.25;2.00;;;;;;;;5010774;28;11493;-72
2022/11/04 22:53:55;;;;;;;;;3.00;2.00;;;;;;;;5009743;28;11467;-72
2022/11/04 22:56:21;;;;;;;;;5.00;3.00;;;;;;;;5010471;28;8930;-72
2022/11/04 22:58:46;;;;;;;;;3.50;3.00;;;;;;;;5010399;28;11648;-72
2022/11/04 23:01:12;;;;;;;;;6.00;3.50;;;;;;;;5010066;28;11543;-72
2022/11/04 23:03:38;;;;;;;;;4.50;2.00;;;;;;;;5010287;28;8863;-72
2022/11/04 23:06:04;;;;;;;;;5.25;1.25;;;;;;;;5010135;28;11462;-72
2022/11/04 23:08:30;;;;;;;;;5.00;4.00;;;;;;;;5010359;28;8785;-72
2022/11/04 23:19:23;;;;;;;;;4.50;1.00;;;;;;;;5018309;28;11458;-72
2022/11/04 23:30:19;;;;;;;;;10.00;8.25;;;;;;;;5031994;28;12159;-72
2022/11/04 23:30:20;;;;;;;;;8.00;7.25;;;;;;;;5031406;28;11497;-72
2022/11/04 23:32:46;;;;;;;;;12.50;9.50;;;;;;;;5031554;28;11562;-72
2022/11/04 23:37:55;;;;;;;;;8.50;6.00;;;;;;;;5031853;28;9491;-72
2022/11/04 23:40:21;;;;;;;;;9.75;9.00;;;;;;;;5031491;28;11500;-72
2022/11/04 23:42:46;;;;;;;;;7.00;6.00;;;;;;;;5031718;28;8807;-72
